sensor_id;sensor_type;location;lat;lon;timestamp;P1;durP1;ratioP1;P2;durP2;ratioP2
13797;SDS011;6970;51.340;3.240;2023-03-29T00:00:30;3.30;;;2.90;;
13797;SDS011;6970;51.340;3.240;2023-03-29T00:02:57;3.57;;;3.27;;
13797;SDS011;6970;51.340;3.240;2023-03-29T00:05:28;5.77;;;3.57;;
13797;SDS011;6970;51.340;3.240;2023-03-29T00:07:59;5.10;;;3.40;;
13797;SDS011;6970;51.340;3.240;2023-03-29T00:10:30;4.63;;;3.43;;
13797;SDS011;6970;51.340;3.240;2023-03-29T00:12:58;4.30;;;3.67;;
13797;SDS011;6970;51.340;3.240;2023-03-29T00:15:25;3.83;;;3.27;;
13797;SDS011;6970;51.340;3.240;2023-03-29T00:17:52;4.17;;;3.03;;
13797;SDS011;6970;51.340;3.240;2023-03-29T00:20:20;4.40;;;3.40;;
13797;SDS011;6970;51.340;3.240;2023-03-29T00:22:47;4.30;;;3.90;;
13797;SDS011;6970;51.340;3.240;2023-03-29T00:25:14;4.90;;;3.67;;
13797;SDS011;6970;51.340;3.240;2023-03-29T00:27:41;10.10;;;3.80;;
13797;SDS011;6970;51.340;3.240;2023-03-29T00:30:08;4.40;;;3.73;;
13797;SDS011;6970;51.340;3.240;2023-03-29T00:32:36;6.83;;;3.37;;
13797;SDS011;6970;51.340;3.240;2023-03-29T00:35:03;3.83;;;3.50;;
13797;SDS011;6970;51.340;3.240;2023-03-29T00:37:31;5.73;;;3.80;;
13797;SDS011;6970;51.340;3.240;2023-03-29T00:39:59;4.13;;;3.77;;
13797;SDS011;6970;51.340;3.240;2023-03-29T00:42:26;4.00;;;3.50;;
13797;SDS011;6970;51.340;3.240;2023-03-29T00:47:52;5.83;;;3.80;;
13797;SDS011;6970;51.340;3.240;2023-03-29T00:50:28;4.47;;;3.77;;
13797;SDS011;6970;51.340;3.240;2023-03-29T00:53:10;5.57;;;3.50;;
13797;SDS011;6970;51.340;3.240;2023-03-29T00:56:16;4.10;;;3.47;;
13797;SDS011;6970;51.340;3.240;2023-03-29T00:58:54;3.23;;;2.90;;
13797;SDS011;6970;51.340;3.240;2023-03-29T01:01:49;5.63;;;3.80;;
13797;SDS011;6970;51.340;3.240;2023-03-29T01:07:40;6.57;;;3.73;;
13797;SDS011;6970;51.340;3.240;2023-03-29T01:10:14;5.10;;;3.90;;
13797;SDS011;6970;51.340;3.240;2023-03-29T01:12:47;5.60;;;3.30;;
13797;SDS011;6970;51.340;3.240;2023-03-29T01:15:18;6.43;;;3.90;;
13797;SDS011;6970;51.340;3.240;2023-03-29T01:17:48;3.63;;;3.33;;
13797;SDS011;6970;51.340;3.240;2023-03-29T01:25:47;4.70;;;3.30;;
13797;SDS011;6970;51.340;3.240;2023-03-29T01:28:25;5.30;;;3.50;;
13797;SDS011;6970;51.340;3.240;2023-03-29T01:31:03;3.93;;;3.53;;
13797;SDS011;6970;51.340;3.240;2023-03-29T01:33:41;5.70;;;3.67;;
13797;SDS011;6970;51.340;3.240;2023-03-29T01:39:00;4.80;;;4.37;;
13797;SDS011;6970;51.340;3.240;2023-03-29T01:41:44;5.97;;;4.07;;
13797;SDS011;6970;51.340;3.240;2023-03-29T01:44:14;4.83;;;3.80;;
13797;SDS011;6970;51.340;3.240;2023-03-29T01:46:44;4.07;;;3.67;;
13797;SDS011;6970;51.340;3.240;2023-03-29T01:49:24;4.33;;;3.73;;
13797;SDS011;6970;51.340;3.240;2023-03-29T01:52:18;5.73;;;3.70;;
13797;SDS011;6970;51.340;3.240;2023-03-29T01:54:54;5.00;;;3.93;;
13797;SDS011;6970;51.340;3.240;2023-03-29T01:57:30;6.00;;;3.73;;
13797;SDS011;6970;51.340;3.240;2023-03-29T02:00:00;5.03;;;3.50;;
13797;SDS011;6970;51.340;3.240;2023-03-29T02:02:33;5.37;;;3.70;;
13797;SDS011;6970;51.340;3.240;2023-03-29T02:05:01;6.00;;;4.00;;
13797;SDS011;6970;51.340;3.240;2023-03-29T02:07:30;5.10;;;3.50;;
13797;SDS011;6970;51.340;3.240;2023-03-29T02:10:03;6.10;;;3.73;;
13797;SDS011;6970;51.340;3.240;2023-03-29T02:12:32;4.57;;;3.83;;
13797;SDS011;6970;51.340;3.240;2023-03-29T02:14:59;5.80;;;4.00;;
13797;SDS011;6970;51.340;3.240;2023-03-29T02:17:26;5.23;;;3.67;;
13797;SDS011;6970;51.340;3.240;2023-03-29T02:19:56;4.13;;;3.73;;
13797;SDS011;6970;51.340;3.240;2023-03-29T02:22:26;5.33;;;4.03;;
13797;SDS011;6970;51.340;3.240;2023-03-29T02:24:56;5.67;;;3.53;;
13797;SDS011;6970;51.340;3.240;2023-03-29T02:27:26;5.00;;;4.27;;
13797;SDS011;6970;51.340;3.240;2023-03-29T02:29:54;4.63;;;3.80;;
13797;SDS011;6970;51.340;3.240;2023-03-29T02:32:24;3.63;;;3.33;;
13797;SDS011;6970;51.340;3.240;2023-03-29T02:35:00;4.00;;;3.60;;
13797;SDS011;6970;51.340;3.240;2023-03-29T02:37:32;4.70;;;3.37;;
13797;SDS011;6970;51.340;3.240;2023-03-29T02:40:01;4.40;;;3.60;;
13797;SDS011;6970;51.340;3.240;2023-03-29T02:42:33;4.87;;;4.00;;
13797;SDS011;6970;51.340;3.240;2023-03-29T02:45:01;4.57;;;4.10;;
13797;SDS011;6970;51.340;3.240;2023-03-29T02:47:31;4.30;;;3.40;;
13797;SDS011;6970;51.340;3.240;2023-03-29T02:50:04;4.53;;;3.47;;
13797;SDS011;6970;51.340;3.240;2023-03-29T02:52:33;5.37;;;3.90;;
13797;SDS011;6970;51.340;3.240;2023-03-29T02:55:07;4.00;;;3.60;;
13797;SDS011;6970;51.340;3.240;2023-03-29T02:57:40;4.23;;;3.30;;
13797;SDS011;6970;51.340;3.240;2023-03-29T03:00:10;9.03;;;4.57;;
13797;SDS011;6970;51.340;3.240;2023-03-29T03:02:39;4.20;;;3.80;;
13797;SDS011;6970;51.340;3.240;2023-03-29T03:05:07;4.10;;;3.70;;
13797;SDS011;6970;51.340;3.240;2023-03-29T03:07:34;4.43;;;3.73;;
13797;SDS011;6970;51.340;3.240;2023-03-29T03:10:01;4.27;;;3.70;;
13797;SDS011;6970;51.340;3.240;2023-03-29T03:12:29;5.03;;;3.80;;
13797;SDS011;6970;51.340;3.240;2023-03-29T03:14:56;4.17;;;3.77;;
13797;SDS011;6970;51.340;3.240;2023-03-29T03:17:23;4.77;;;3.80;;
13797;SDS011;6970;51.340;3.240;2023-03-29T03:19:50;6.37;;;3.20;;
13797;SDS011;6970;51.340;3.240;2023-03-29T03:22:18;4.57;;;3.63;;
13797;SDS011;6970;51.340;3.240;2023-03-29T03:24:46;5.73;;;4.13;;
13797;SDS011;6970;51.340;3.240;2023-03-29T03:27:14;6.13;;;4.50;;
13797;SDS011;6970;51.340;3.240;2023-03-29T03:29:41;6.80;;;3.77;;
13797;SDS011;6970;51.340;3.240;2023-03-29T03:32:09;5.20;;;3.43;;
13797;SDS011;6970;51.340;3.240;2023-03-29T03:34:37;4.07;;;3.73;;
13797;SDS011;6970;51.340;3.240;2023-03-29T03:37:04;4.33;;;3.63;;
13797;SDS011;6970;51.340;3.240;2023-03-29T03:39:31;5.37;;;4.17;;
13797;SDS011;6970;51.340;3.240;2023-03-29T03:41:58;4.97;;;3.70;;
13797;SDS011;6970;51.340;3.240;2023-03-29T03:44:25;4.33;;;3.77;;
13797;SDS011;6970;51.340;3.240;2023-03-29T03:46:52;4.40;;;4.00;;
13797;SDS011;6970;51.340;3.240;2023-03-29T03:49:19;6.73;;;4.20;;
13797;SDS011;6970;51.340;3.240;2023-03-29T03:51:47;4.70;;;3.83;;
13797;SDS011;6970;51.340;3.240;2023-03-29T03:54:17;5.23;;;3.70;;
13797;SDS011;6970;51.340;3.240;2023-03-29T03:56:44;4.17;;;3.73;;
13797;SDS011;6970;51.340;3.240;2023-03-29T03:59:11;6.30;;;4.23;;
13797;SDS011;6970;51.340;3.240;2023-03-29T04:01:38;4.63;;;4.10;;
13797;SDS011;6970;51.340;3.240;2023-03-29T04:04:09;4.73;;;4.20;;
13797;SDS011;6970;51.340;3.240;2023-03-29T04:06:37;5.63;;;3.77;;
13797;SDS011;6970;51.340;3.240;2023-03-29T04:09:08;7.47;;;3.90;;
13797;SDS011;6970;51.340;3.240;2023-03-29T04:11:35;6.83;;;4.30;;
13797;SDS011;6970;51.340;3.240;2023-03-29T04:14:03;7.03;;;4.10;;
13797;SDS011;6970;51.340;3.240;2023-03-29T04:16:30;8.73;;;4.23;;
13797;SDS011;6970;51.340;3.240;2023-03-29T04:18:57;5.00;;;3.90;;
13797;SDS011;6970;51.340;3.240;2023-03-29T04:21:24;5.43;;;4.63;;
13797;SDS011;6970;51.340;3.240;2023-03-29T04:23:51;4.87;;;4.37;;
13797;SDS011;6970;51.340;3.240;2023-03-29T04:26:18;4.60;;;4.20;;
13797;SDS011;6970;51.340;3.240;2023-03-29T04:28:45;7.23;;;4.40;;
13797;SDS011;6970;51.340;3.240;2023-03-29T04:31:13;7.57;;;4.47;;
13797;SDS011;6970;51.340;3.240;2023-03-29T04:33:40;6.33;;;4.20;;
13797;SDS011;6970;51.340;3.240;2023-03-29T04:36:08;9.17;;;4.47;;
13797;SDS011;6970;51.340;3.240;2023-03-29T04:38:35;4.63;;;4.00;;
13797;SDS011;6970;51.340;3.240;2023-03-29T04:41:03;4.30;;;3.90;;
13797;SDS011;6970;51.340;3.240;2023-03-29T04:43:30;6.23;;;4.67;;
13797;SDS011;6970;51.340;3.240;2023-03-29T04:45:57;5.13;;;4.17;;
13797;SDS011;6970;51.340;3.240;2023-03-29T04:48:25;9.27;;;4.07;;
13797;SDS011;6970;51.340;3.240;2023-03-29T04:50:52;5.43;;;4.20;;
13797;SDS011;6970;51.340;3.240;2023-03-29T04:53:19;6.07;;;3.93;;
13797;SDS011;6970;51.340;3.240;2023-03-29T04:55:47;5.50;;;4.50;;
13797;SDS011;6970;51.340;3.240;2023-03-29T04:58:15;6.60;;;4.30;;
13797;SDS011;6970;51.340;3.240;2023-03-29T05:00:43;5.20;;;4.60;;
13797;SDS011;6970;51.340;3.240;2023-03-29T05:03:11;5.00;;;4.33;;
13797;SDS011;6970;51.340;3.240;2023-03-29T05:05:40;7.57;;;4.87;;
13797;SDS011;6970;51.340;3.240;2023-03-29T05:08:08;5.80;;;4.33;;
13797;SDS011;6970;51.340;3.240;2023-03-29T05:10:36;4.60;;;3.90;;
13797;SDS011;6970;51.340;3.240;2023-03-29T05:13:03;6.70;;;4.47;;
13797;SDS011;6970;51.340;3.240;2023-03-29T05:15:30;6.63;;;4.43;;
13797;SDS011;6970;51.340;3.240;2023-03-29T05:17:57;7.13;;;4.77;;
13797;SDS011;6970;51.340;3.240;2023-03-29T05:20:24;6.07;;;4.40;;
13797;SDS011;6970;51.340;3.240;2023-03-29T05:22:51;5.87;;;4.33;;
13797;SDS011;6970;51.340;3.240;2023-03-29T05:25:18;5.20;;;4.57;;
13797;SDS011;6970;51.340;3.240;2023-03-29T05:27:46;8.77;;;4.57;;
13797;SDS011;6970;51.340;3.240;2023-03-29T05:30:13;5.17;;;4.60;;
13797;SDS011;6970;51.340;3.240;2023-03-29T05:32:41;4.87;;;4.47;;
13797;SDS011;6970;51.340;3.240;2023-03-29T05:35:08;8.60;;;5.23;;
13797;SDS011;6970;51.340;3.240;2023-03-29T05:37:36;6.80;;;5.17;;
13797;SDS011;6970;51.340;3.240;2023-03-29T05:40:04;6.83;;;5.10;;
13797;SDS011;6970;51.340;3.240;2023-03-29T05:42:33;6.53;;;4.90;;
13797;SDS011;6970;51.340;3.240;2023-03-29T05:45:01;7.30;;;5.10;;
13797;SDS011;6970;51.340;3.240;2023-03-29T05:47:28;8.67;;;5.00;;
13797;SDS011;6970;51.340;3.240;2023-03-29T05:49:55;6.10;;;4.80;;
13797;SDS011;6970;51.340;3.240;2023-03-29T05:52:22;8.97;;;5.47;;
13797;SDS011;6970;51.340;3.240;2023-03-29T05:54:49;8.10;;;4.47;;
13797;SDS011;6970;51.340;3.240;2023-03-29T05:57:17;7.17;;;4.80;;
13797;SDS011;6970;51.340;3.240;2023-03-29T05:59:44;7.20;;;4.70;;
13797;SDS011;6970;51.340;3.240;2023-03-29T06:02:12;6.53;;;4.90;;
13797;SDS011;6970;51.340;3.240;2023-03-29T06:04:41;8.83;;;5.30;;
13797;SDS011;6970;51.340;3.240;2023-03-29T06:07:08;6.83;;;5.40;;
13797;SDS011;6970;51.340;3.240;2023-03-29T06:09:38;6.47;;;4.73;;
13797;SDS011;6970;51.340;3.240;2023-03-29T06:12:05;7.80;;;4.90;;
13797;SDS011;6970;51.340;3.240;2023-03-29T06:14:33;11.17;;;5.80;;
13797;SDS011;6970;51.340;3.240;2023-03-29T06:17:01;7.90;;;5.10;;
13797;SDS011;6970;51.340;3.240;2023-03-29T06:19:29;10.67;;;5.90;;
13797;SDS011;6970;51.340;3.240;2023-03-29T06:21:56;7.27;;;5.43;;
13797;SDS011;6970;51.340;3.240;2023-03-29T06:24:23;14.23;;;6.77;;
13797;SDS011;6970;51.340;3.240;2023-03-29T06:26:50;6.83;;;6.13;;
13797;SDS011;6970;51.340;3.240;2023-03-29T06:29:18;8.10;;;6.03;;
13797;SDS011;6970;51.340;3.240;2023-03-29T06:31:45;8.80;;;5.93;;
13797;SDS011;6970;51.340;3.240;2023-03-29T06:34:12;8.33;;;5.43;;
13797;SDS011;6970;51.340;3.240;2023-03-29T06:36:39;8.07;;;6.50;;
13797;SDS011;6970;51.340;3.240;2023-03-29T06:39:06;7.93;;;6.33;;
13797;SDS011;6970;51.340;3.240;2023-03-29T06:41:33;8.20;;;6.33;;
13797;SDS011;6970;51.340;3.240;2023-03-29T06:44:00;10.20;;;5.87;;
13797;SDS011;6970;51.340;3.240;2023-03-29T06:46:29;12.27;;;6.10;;
13797;SDS011;6970;51.340;3.240;2023-03-29T06:48:56;7.40;;;6.20;;
13797;SDS011;6970;51.340;3.240;2023-03-29T06:51:23;10.60;;;6.30;;
13797;SDS011;6970;51.340;3.240;2023-03-29T06:53:50;7.27;;;6.60;;
13797;SDS011;6970;51.340;3.240;2023-03-29T06:56:17;9.10;;;6.07;;
13797;SDS011;6970;51.340;3.240;2023-03-29T06:58:44;9.40;;;7.10;;
13797;SDS011;6970;51.340;3.240;2023-03-29T07:01:12;10.60;;;6.93;;
13797;SDS011;6970;51.340;3.240;2023-03-29T07:03:39;9.10;;;7.07;;
13797;SDS011;6970;51.340;3.240;2023-03-29T07:06:06;9.57;;;6.43;;
13797;SDS011;6970;51.340;3.240;2023-03-29T07:08:38;8.77;;;6.20;;
13797;SDS011;6970;51.340;3.240;2023-03-29T07:11:13;9.87;;;6.50;;
13797;SDS011;6970;51.340;3.240;2023-03-29T07:13:41;12.00;;;7.40;;
13797;SDS011;6970;51.340;3.240;2023-03-29T07:16:09;11.03;;;6.77;;
13797;SDS011;6970;51.340;3.240;2023-03-29T07:18:41;8.43;;;6.60;;
13797;SDS011;6970;51.340;3.240;2023-03-29T07:21:10;9.77;;;7.50;;
13797;SDS011;6970;51.340;3.240;2023-03-29T07:23:38;12.17;;;6.90;;
13797;SDS011;6970;51.340;3.240;2023-03-29T07:26:06;9.20;;;7.00;;
13797;SDS011;6970;51.340;3.240;2023-03-29T07:28:33;10.73;;;7.33;;
13797;SDS011;6970;51.340;3.240;2023-03-29T07:31:03;8.90;;;6.93;;
13797;SDS011;6970;51.340;3.240;2023-03-29T07:33:32;13.27;;;7.67;;
13797;SDS011;6970;51.340;3.240;2023-03-29T07:36:00;11.33;;;6.87;;
13797;SDS011;6970;51.340;3.240;2023-03-29T07:38:28;8.97;;;6.53;;
13797;SDS011;6970;51.340;3.240;2023-03-29T07:40:56;8.30;;;6.77;;
13797;SDS011;6970;51.340;3.240;2023-03-29T07:43:25;11.33;;;6.53;;
13797;SDS011;6970;51.340;3.240;2023-03-29T07:45:52;12.47;;;7.63;;
13797;SDS011;6970;51.340;3.240;2023-03-29T07:48:19;10.43;;;6.47;;
13797;SDS011;6970;51.340;3.240;2023-03-29T07:50:47;10.43;;;7.00;;
13797;SDS011;6970;51.340;3.240;2023-03-29T07:53:14;11.83;;;7.23;;
13797;SDS011;6970;51.340;3.240;2023-03-29T07:55:41;11.97;;;7.27;;
13797;SDS011;6970;51.340;3.240;2023-03-29T07:58:13;14.23;;;6.70;;
13797;SDS011;6970;51.340;3.240;2023-03-29T08:00:41;13.13;;;7.07;;
13797;SDS011;6970;51.340;3.240;2023-03-29T08:03:12;15.13;;;8.20;;
13797;SDS011;6970;51.340;3.240;2023-03-29T08:05:40;11.67;;;6.87;;
13797;SDS011;6970;51.340;3.240;2023-03-29T08:08:07;12.97;;;7.83;;
13797;SDS011;6970;51.340;3.240;2023-03-29T08:10:35;11.53;;;7.50;;
13797;SDS011;6970;51.340;3.240;2023-03-29T08:13:05;12.40;;;7.10;;
13797;SDS011;6970;51.340;3.240;2023-03-29T08:15:34;12.77;;;8.03;;
13797;SDS011;6970;51.340;3.240;2023-03-29T08:18:07;10.97;;;7.97;;
13797;SDS011;6970;51.340;3.240;2023-03-29T08:20:34;11.50;;;7.23;;
13797;SDS011;6970;51.340;3.240;2023-03-29T08:23:01;10.13;;;7.03;;
13797;SDS011;6970;51.340;3.240;2023-03-29T08:25:29;12.03;;;6.70;;
13797;SDS011;6970;51.340;3.240;2023-03-29T08:27:56;7.60;;;6.70;;
13797;SDS011;6970;51.340;3.240;2023-03-29T08:30:23;16.37;;;6.77;;
13797;SDS011;6970;51.340;3.240;2023-03-29T08:32:50;11.07;;;6.20;;
13797;SDS011;6970;51.340;3.240;2023-03-29T08:35:20;9.47;;;6.10;;
13797;SDS011;6970;51.340;3.240;2023-03-29T08:37:47;11.37;;;7.53;;
13797;SDS011;6970;51.340;3.240;2023-03-29T08:40:18;10.73;;;7.27;;
13797;SDS011;6970;51.340;3.240;2023-03-29T08:50:59;9.60;;;7.00;;
13797;SDS011;6970;51.340;3.240;2023-03-29T08:53:36;7.83;;;6.87;;
13797;SDS011;6970;51.340;3.240;2023-03-29T08:56:14;14.00;;;6.70;;
13797;SDS011;6970;51.340;3.240;2023-03-29T08:58:48;12.00;;;7.07;;
13797;SDS011;6970;51.340;3.240;2023-03-29T09:01:17;9.13;;;6.57;;
13797;SDS011;6970;51.340;3.240;2023-03-29T09:03:49;6.80;;;6.13;;
13797;SDS011;6970;51.340;3.240;2023-03-29T09:06:25;12.63;;;6.47;;
13797;SDS011;6970;51.340;3.240;2023-03-29T09:08:53;18.17;;;6.60;;
13797;SDS011;6970;51.340;3.240;2023-03-29T09:14:00;6.87;;;5.63;;
13797;SDS011;6970;51.340;3.240;2023-03-29T09:19:30;7.70;;;5.63;;
13797;SDS011;6970;51.340;3.240;2023-03-29T09:25:20;10.63;;;6.23;;
13797;SDS011;6970;51.340;3.240;2023-03-29T09:28:03;6.87;;;5.63;;
13797;SDS011;6970;51.340;3.240;2023-03-29T09:30:39;13.03;;;6.37;;
13797;SDS011;6970;51.340;3.240;2023-03-29T09:35:45;9.17;;;5.27;;
13797;SDS011;6970;51.340;3.240;2023-03-29T09:38:15;6.13;;;5.37;;
13797;SDS011;6970;51.340;3.240;2023-03-29T09:41:29;6.17;;;5.30;;
13797;SDS011;6970;51.340;3.240;2023-03-29T09:43:52;7.23;;;6.00;;
13797;SDS011;6970;51.340;3.240;2023-03-29T09:46:28;8.77;;;6.20;;
13797;SDS011;6970;51.340;3.240;2023-03-29T09:49:03;7.07;;;5.37;;
13797;SDS011;6970;51.340;3.240;2023-03-29T09:51:35;10.33;;;5.73;;
13797;SDS011;6970;51.340;3.240;2023-03-29T09:54:04;6.83;;;5.07;;
13797;SDS011;6970;51.340;3.240;2023-03-29T09:56:31;6.60;;;4.67;;
13797;SDS011;6970;51.340;3.240;2023-03-29T09:58:58;9.43;;;4.53;;
13797;SDS011;6970;51.340;3.240;2023-03-29T10:01:25;5.60;;;4.10;;
13797;SDS011;6970;51.340;3.240;2023-03-29T10:04:04;8.73;;;4.90;;
13797;SDS011;6970;51.340;3.240;2023-03-29T10:06:33;8.73;;;4.90;;
13797;SDS011;6970;51.340;3.240;2023-03-29T10:09:02;6.73;;;5.10;;
13797;SDS011;6970;51.340;3.240;2023-03-29T10:14:15;10.13;;;5.70;;
13797;SDS011;6970;51.340;3.240;2023-03-29T10:16:45;10.67;;;5.93;;
13797;SDS011;6970;51.340;3.240;2023-03-29T10:21:54;9.03;;;6.47;;
13797;SDS011;6970;51.340;3.240;2023-03-29T10:24:24;9.87;;;7.03;;
13797;SDS011;6970;51.340;3.240;2023-03-29T10:26:53;11.10;;;6.87;;
13797;SDS011;6970;51.340;3.240;2023-03-29T10:29:25;10.27;;;7.17;;
13797;SDS011;6970;51.340;3.240;2023-03-29T10:31:53;9.17;;;7.33;;
13797;SDS011;6970;51.340;3.240;2023-03-29T10:34:20;9.80;;;6.17;;
13797;SDS011;6970;51.340;3.240;2023-03-29T10:36:58;15.70;;;7.60;;
13797;SDS011;6970;51.340;3.240;2023-03-29T10:39:27;10.27;;;6.93;;
13797;SDS011;6970;51.340;3.240;2023-03-29T10:41:59;9.60;;;7.10;;
13797;SDS011;6970;51.340;3.240;2023-03-29T10:44:29;9.73;;;7.47;;
13797;SDS011;6970;51.340;3.240;2023-03-29T10:49:48;8.90;;;6.37;;
13797;SDS011;6970;51.340;3.240;2023-03-29T10:52:22;11.47;;;6.77;;
13797;SDS011;6970;51.340;3.240;2023-03-29T10:54:50;8.87;;;6.60;;
13797;SDS011;6970;51.340;3.240;2023-03-29T11:00:13;9.10;;;6.23;;
13797;SDS011;6970;51.340;3.240;2023-03-29T11:05:27;9.87;;;6.47;;
13797;SDS011;6970;51.340;3.240;2023-03-29T11:08:46;7.50;;;5.70;;
13797;SDS011;6970;51.340;3.240;2023-03-29T11:11:09;7.00;;;5.57;;
13797;SDS011;6970;51.340;3.240;2023-03-29T11:14:20;8.07;;;5.20;;
13797;SDS011;6970;51.340;3.240;2023-03-29T11:17:00;6.37;;;4.53;;
13797;SDS011;6970;51.340;3.240;2023-03-29T11:31:13;3.53;;;3.20;;
13797;SDS011;6970;51.340;3.240;2023-03-29T11:36:40;6.13;;;3.53;;
13797;SDS011;6970;51.340;3.240;2023-03-29T11:42:21;5.07;;;3.40;;
13797;SDS011;6970;51.340;3.240;2023-03-29T11:44:51;5.00;;;3.50;;
13797;SDS011;6970;51.340;3.240;2023-03-29T11:47:20;5.47;;;3.73;;
13797;SDS011;6970;51.340;3.240;2023-03-29T11:49:50;6.63;;;3.83;;
13797;SDS011;6970;51.340;3.240;2023-03-29T11:52:26;8.03;;;4.73;;
13797;SDS011;6970;51.340;3.240;2023-03-29T11:55:04;5.80;;;3.80;;
13797;SDS011;6970;51.340;3.240;2023-03-29T11:57:43;5.40;;;4.10;;
13797;SDS011;6970;51.340;3.240;2023-03-29T12:01:19;8.23;;;4.57;;
13797;SDS011;6970;51.340;3.240;2023-03-29T12:03:35;4.40;;;3.70;;
13797;SDS011;6970;51.340;3.240;2023-03-29T12:08:49;7.20;;;4.13;;
13797;SDS011;6970;51.340;3.240;2023-03-29T12:14:20;4.40;;;4.00;;
13797;SDS011;6970;51.340;3.240;2023-03-29T12:16:56;6.37;;;3.97;;
13797;SDS011;6970;51.340;3.240;2023-03-29T12:19:30;8.90;;;4.60;;
13797;SDS011;6970;51.340;3.240;2023-03-29T12:21:59;5.43;;;3.30;;
13797;SDS011;6970;51.340;3.240;2023-03-29T12:24:28;5.97;;;3.30;;
13797;SDS011;6970;51.340;3.240;2023-03-29T12:33:07;4.47;;;3.10;;
13797;SDS011;6970;51.340;3.240;2023-03-29T12:35:47;4.13;;;2.53;;
13797;SDS011;6970;51.340;3.240;2023-03-29T12:38:36;3.40;;;2.53;;
13797;SDS011;6970;51.340;3.240;2023-03-29T12:41:09;3.57;;;2.63;;
13797;SDS011;6970;51.340;3.240;2023-03-29T12:43:40;5.80;;;3.07;;
13797;SDS011;6970;51.340;3.240;2023-03-29T12:46:09;5.30;;;4.00;;
13797;SDS011;6970;51.340;3.240;2023-03-29T12:48:46;5.10;;;3.90;;
13797;SDS011;6970;51.340;3.240;2023-03-29T12:51:17;4.67;;;3.90;;
13797;SDS011;6970;51.340;3.240;2023-03-29T12:53:48;3.83;;;3.30;;
13797;SDS011;6970;51.340;3.240;2023-03-29T12:56:19;5.93;;;3.97;;
13797;SDS011;6970;51.340;3.240;2023-03-29T13:01:50;7.83;;;4.30;;
13797;SDS011;6970;51.340;3.240;2023-03-29T13:12:18;3.33;;;3.03;;
13797;SDS011;6970;51.340;3.240;2023-03-29T13:15:06;3.33;;;2.67;;
13797;SDS011;6970;51.340;3.240;2023-03-29T13:31:22;4.17;;;2.80;;
13797;SDS011;6970;51.340;3.240;2023-03-29T13:36:57;2.60;;;2.40;;
13797;SDS011;6970;51.340;3.240;2023-03-29T13:39:46;3.30;;;2.60;;
13797;SDS011;6970;51.340;3.240;2023-03-29T13:45:14;3.10;;;2.77;;
13797;SDS011;6970;51.340;3.240;2023-03-29T13:47:59;4.60;;;2.60;;
13797;SDS011;6970;51.340;3.240;2023-03-29T13:51:20;4.57;;;2.97;;
13797;SDS011;6970;51.340;3.240;2023-03-29T13:54:12;4.00;;;2.83;;
13797;SDS011;6970;51.340;3.240;2023-03-29T13:57:02;3.63;;;3.20;;
13797;SDS011;6970;51.340;3.240;2023-03-29T13:59:34;3.70;;;3.50;;
13797;SDS011;6970;51.340;3.240;2023-03-29T14:02:03;4.20;;;3.53;;
13797;SDS011;6970;51.340;3.240;2023-03-29T14:04:40;4.63;;;3.30;;
13797;SDS011;6970;51.340;3.240;2023-03-29T14:07:12;4.87;;;3.57;;
13797;SDS011;6970;51.340;3.240;2023-03-29T14:09:42;4.90;;;4.20;;
13797;SDS011;6970;51.340;3.240;2023-03-29T14:12:12;4.33;;;3.93;;
13797;SDS011;6970;51.340;3.240;2023-03-29T14:14:42;7.27;;;4.10;;
13797;SDS011;6970;51.340;3.240;2023-03-29T14:17:23;4.40;;;3.60;;
13797;SDS011;6970;51.340;3.240;2023-03-29T14:19:51;3.50;;;3.20;;
13797;SDS011;6970;51.340;3.240;2023-03-29T14:22:19;3.60;;;3.30;;
13797;SDS011;6970;51.340;3.240;2023-03-29T14:24:50;4.67;;;3.57;;
13797;SDS011;6970;51.340;3.240;2023-03-29T14:27:20;5.53;;;2.73;;
13797;SDS011;6970;51.340;3.240;2023-03-29T14:29:49;4.57;;;2.70;;
13797;SDS011;6970;51.340;3.240;2023-03-29T14:32:18;4.60;;;3.03;;
13797;SDS011;6970;51.340;3.240;2023-03-29T14:34:52;3.93;;;3.63;;
13797;SDS011;6970;51.340;3.240;2023-03-29T14:37:26;4.80;;;4.40;;
13797;SDS011;6970;51.340;3.240;2023-03-29T14:39:54;4.53;;;4.13;;
13797;SDS011;6970;51.340;3.240;2023-03-29T14:42:25;5.80;;;4.23;;
13797;SDS011;6970;51.340;3.240;2023-03-29T14:45:00;5.10;;;4.60;;
13797;SDS011;6970;51.340;3.240;2023-03-29T14:47:30;8.47;;;4.70;;
13797;SDS011;6970;51.340;3.240;2023-03-29T14:49:58;6.90;;;5.23;;
13797;SDS011;6970;51.340;3.240;2023-03-29T14:52:27;5.57;;;5.10;;
13797;SDS011;6970;51.340;3.240;2023-03-29T14:54:59;6.60;;;5.53;;
13797;SDS011;6970;51.340;3.240;2023-03-29T14:57:33;7.70;;;6.17;;
13797;SDS011;6970;51.340;3.240;2023-03-29T15:00:15;6.97;;;5.93;;
13797;SDS011;6970;51.340;3.240;2023-03-29T15:02:52;6.67;;;6.10;;
13797;SDS011;6970;51.340;3.240;2023-03-29T15:05:22;6.77;;;6.17;;
13797;SDS011;6970;51.340;3.240;2023-03-29T15:07:51;6.60;;;6.00;;
13797;SDS011;6970;51.340;3.240;2023-03-29T15:10:21;9.33;;;6.63;;
13797;SDS011;6970;51.340;3.240;2023-03-29T15:12:49;7.00;;;6.40;;
13797;SDS011;6970;51.340;3.240;2023-03-29T15:15:16;7.40;;;6.53;;
13797;SDS011;6970;51.340;3.240;2023-03-29T15:17:43;9.33;;;6.90;;
13797;SDS011;6970;51.340;3.240;2023-03-29T15:20:18;7.40;;;6.47;;
13797;SDS011;6970;51.340;3.240;2023-03-29T15:23:08;7.57;;;6.80;;
13797;SDS011;6970;51.340;3.240;2023-03-29T15:25:55;6.37;;;5.77;;
13797;SDS011;6970;51.340;3.240;2023-03-29T15:28:33;7.80;;;7.10;;
13797;SDS011;6970;51.340;3.240;2023-03-29T15:31:10;8.40;;;7.37;;
13797;SDS011;6970;51.340;3.240;2023-03-29T15:33:40;7.40;;;6.67;;
13797;SDS011;6970;51.340;3.240;2023-03-29T15:36:08;8.50;;;7.57;;
13797;SDS011;6970;51.340;3.240;2023-03-29T15:38:37;11.23;;;8.03;;
13797;SDS011;6970;51.340;3.240;2023-03-29T15:41:11;7.93;;;7.13;;
13797;SDS011;6970;51.340;3.240;2023-03-29T15:43:40;9.83;;;7.07;;
13797;SDS011;6970;51.340;3.240;2023-03-29T15:46:07;8.87;;;7.57;;
13797;SDS011;6970;51.340;3.240;2023-03-29T15:48:37;7.87;;;7.20;;
13797;SDS011;6970;51.340;3.240;2023-03-29T15:51:04;8.83;;;8.00;;
13797;SDS011;6970;51.340;3.240;2023-03-29T15:53:32;7.57;;;6.97;;
13797;SDS011;6970;51.340;3.240;2023-03-29T15:56:00;8.13;;;7.00;;
13797;SDS011;6970;51.340;3.240;2023-03-29T15:58:31;8.97;;;7.47;;
13797;SDS011;6970;51.340;3.240;2023-03-29T16:01:12;11.80;;;8.33;;
13797;SDS011;6970;51.340;3.240;2023-03-29T16:04:02;8.57;;;7.10;;
13797;SDS011;6970;51.340;3.240;2023-03-29T16:06:31;10.07;;;7.43;;
13797;SDS011;6970;51.340;3.240;2023-03-29T16:08:59;11.10;;;8.33;;
13797;SDS011;6970;51.340;3.240;2023-03-29T16:11:26;9.13;;;8.13;;
13797;SDS011;6970;51.340;3.240;2023-03-29T16:13:54;8.23;;;7.43;;
13797;SDS011;6970;51.340;3.240;2023-03-29T16:16:21;7.97;;;6.80;;
13797;SDS011;6970;51.340;3.240;2023-03-29T16:18:48;11.80;;;7.67;;
13797;SDS011;6970;51.340;3.240;2023-03-29T16:21:16;7.80;;;6.37;;
13797;SDS011;6970;51.340;3.240;2023-03-29T16:23:45;12.47;;;8.07;;
13797;SDS011;6970;51.340;3.240;2023-03-29T16:26:13;7.00;;;6.03;;
13797;SDS011;6970;51.340;3.240;2023-03-29T16:28:42;6.70;;;6.00;;
13797;SDS011;6970;51.340;3.240;2023-03-29T16:31:09;8.10;;;6.70;;
13797;SDS011;6970;51.340;3.240;2023-03-29T16:33:38;7.17;;;5.33;;
13797;SDS011;6970;51.340;3.240;2023-03-29T16:36:07;8.07;;;6.03;;
13797;SDS011;6970;51.340;3.240;2023-03-29T16:38:34;8.97;;;7.00;;
13797;SDS011;6970;51.340;3.240;2023-03-29T16:41:02;11.60;;;6.20;;
13797;SDS011;6970;51.340;3.240;2023-03-29T16:43:29;7.13;;;5.57;;
13797;SDS011;6970;51.340;3.240;2023-03-29T16:45:56;8.27;;;5.73;;
13797;SDS011;6970;51.340;3.240;2023-03-29T16:48:23;7.87;;;5.37;;
13797;SDS011;6970;51.340;3.240;2023-03-29T16:50:52;6.47;;;5.40;;
13797;SDS011;6970;51.340;3.240;2023-03-29T16:53:19;5.97;;;5.30;;
13797;SDS011;6970;51.340;3.240;2023-03-29T16:55:48;10.13;;;5.87;;
13797;SDS011;6970;51.340;3.240;2023-03-29T16:58:15;7.47;;;4.93;;
13797;SDS011;6970;51.340;3.240;2023-03-29T17:00:42;8.07;;;5.53;;
13797;SDS011;6970;51.340;3.240;2023-03-29T17:03:13;9.00;;;5.27;;
13797;SDS011;6970;51.340;3.240;2023-03-29T17:05:59;8.73;;;5.00;;
13797;SDS011;6970;51.340;3.240;2023-03-29T17:08:29;5.30;;;4.73;;
13797;SDS011;6970;51.340;3.240;2023-03-29T17:10:56;8.83;;;5.07;;